createdAt,value
2022-08-16T00:00:47.218Z,18.30
2022-08-16T00:03:15.857Z,16.60
2022-08-16T00:05:48.619Z,17.00
2022-08-16T00:08:35.937Z,13.40
2022-08-16T00:11:15.322Z,17.10
2022-08-16T00:13:53.618Z,18.70
2022-08-16T00:17:06.079Z,13.60
2022-08-16T00:19:25.130Z,11.20
2022-08-16T00:22:01.560Z,11.50
2022-08-16T00:24:32.950Z,9.30
2022-08-16T00:27:04.394Z,8.90
2022-08-16T00:29:33.810Z,8.80
2022-08-16T00:32:07.337Z,8.70
2022-08-16T00:34:44.192Z,8.40
2022-08-16T00:37:56.267Z,6.20
2022-08-16T00:40:34.059Z,12.30
2022-08-16T00:43:11.933Z,7.90
2022-08-16T00:46:34.758Z,7.10
2022-08-16T00:49:17.706Z,7.60
2022-08-16T00:51:55.152Z,7.70
2022-08-16T00:54:30.612Z,6.60
2022-08-16T00:57:03.835Z,6.20
2022-08-16T00:59:35.907Z,8.80
2022-08-16T01:02:30.914Z,8.50
2022-08-16T01:05:09.503Z,6.60
2022-08-16T01:07:51.712Z,6.50
2022-08-16T01:10:32.549Z,7.70
2022-08-16T01:13:22.499Z,5.80
2022-08-16T01:16:03.211Z,6.30
2022-08-16T01:18:41.659Z,6.40
2022-08-16T01:22:47.792Z,8.30
2022-08-16T01:24:55.675Z,5.50
2022-08-16T01:27:57.596Z,7.10
2022-08-16T01:30:49.701Z,7.10
2022-08-16T01:33:20.371Z,5.00
2022-08-16T01:36:11.640Z,6.10
2022-08-16T01:38:53.248Z,5.90
2022-08-16T01:41:30.960Z,5.20
2022-08-16T01:44:03.529Z,6.30
2022-08-16T01:46:43.555Z,8.00
2022-08-16T01:49:23.783Z,4.50
2022-08-16T01:52:02.726Z,5.40
2022-08-16T01:54:59.340Z,4.80
2022-08-16T01:57:28.973Z,5.30
2022-08-16T02:00:01.836Z,9.60
2022-08-16T02:02:30.874Z,6.20
2022-08-16T02:05:00.399Z,5.80
2022-08-16T02:07:30.541Z,5.90
2022-08-16T02:09:59.685Z,6.10
2022-08-16T02:12:51.414Z,5.20
2022-08-16T02:15:29.123Z,5.10
2022-08-16T02:18:01.714Z,6.90
2022-08-16T02:20:34.360Z,5.70
2022-08-16T02:23:05.886Z,5.00
2022-08-16T02:25:52.026Z,5.00
2022-08-16T02:28:24.784Z,5.60
2022-08-16T02:30:55.791Z,6.70
2022-08-16T02:33:44.078Z,6.00
2022-08-16T02:36:47.796Z,5.30
2022-08-16T02:39:12.066Z,6.10
2022-08-16T02:41:53.356Z,6.60
2022-08-16T02:44:23.615Z,4.60
2022-08-16T02:46:55.897Z,5.60
2022-08-16T02:49:58.150Z,6.30
2022-08-16T02:52:17.439Z,5.90
2022-08-16T02:54:55.917Z,4.50
2022-08-16T02:57:26.316Z,5.10
2022-08-16T02:59:55.456Z,4.90
2022-08-16T03:02:31.720Z,5.70
2022-08-16T03:05:04.847Z,6.80
2022-08-16T03:07:37.331Z,9.10
2022-08-16T03:10:11.558Z,5.50
2022-08-16T03:12:55.447Z,5.80
2022-08-16T03:15:27.736Z,6.90
2022-08-16T03:17:56.686Z,7.40
2022-08-16T03:20:31.843Z,7.40
2022-08-16T03:23:02.137Z,6.90
2022-08-16T03:25:40.969Z,6.00
2022-08-16T03:28:17.278Z,5.30
2022-08-16T03:30:47.652Z,6.00
2022-08-16T03:33:17.336Z,7.80
2022-08-16T03:35:57.232Z,6.10
2022-08-16T03:38:33.482Z,7.60
2022-08-16T03:41:25.422Z,5.80
2022-08-16T03:43:59.920Z,7.90
2022-08-16T03:46:47.624Z,8.70
2022-08-16T03:49:22.486Z,7.30
2022-08-16T03:51:53.466Z,7.20
2022-08-16T03:54:24.225Z,8.20
2022-08-16T03:56:58.872Z,6.30
2022-08-16T03:59:31.903Z,7.50
2022-08-16T04:02:10.665Z,6.60
2022-08-16T04:04:54.698Z,6.80
2022-08-16T04:07:26.469Z,5.90
2022-08-16T04:10:36.880Z,5.70
2022-08-16T04:12:59.419Z,7.50
2022-08-16T04:15:31.098Z,5.50
2022-08-16T04:18:14.767Z,7.80
2022-08-16T04:20:44.434Z,8.50
2022-08-16T04:23:13.986Z,7.20
2022-08-16T04:25:46.987Z,5.60
2022-08-16T04:28:54.655Z,6.30
2022-08-16T04:31:04.623Z,6.40
2022-08-16T04:33:37.404Z,4.80
2022-08-16T04:36:06.688Z,8.60
2022-08-16T04:38:35.898Z,6.10
2022-08-16T04:41:04.389Z,5.30
2022-08-16T04:43:38.603Z,6.10
2022-08-16T04:46:30.736Z,5.60
2022-08-16T04:49:04.662Z,5.30
2022-08-16T04:51:36.141Z,7.20
2022-08-16T04:54:04.904Z,5.00
2022-08-16T04:56:36.296Z,5.00
2022-08-16T04:59:14.669Z,6.60
2022-08-16T05:01:57.729Z,6.80
2022-08-16T05:04:30.028Z,6.90
2022-08-16T05:06:59.362Z,7.00
2022-08-16T05:09:39.758Z,5.70
2022-08-16T05:12:18.256Z,6.50
2022-08-16T05:15:02.718Z,7.90
2022-08-16T05:17:33.841Z,6.90
2022-08-16T05:20:39.190Z,6.70
2022-08-16T05:22:56.715Z,6.20
2022-08-16T05:25:25.398Z,16.00
2022-08-16T05:30:43.975Z,21.70
2022-08-16T05:33:21.370Z,17.60
2022-08-16T05:35:55.039Z,17.70
2022-08-16T05:38:39.271Z,10.20
2022-08-16T05:41:14.038Z,8.80
2022-08-16T05:43:47.781Z,10.20
2022-08-16T05:46:31.214Z,8.30
2022-08-16T05:49:09.582Z,8.20
2022-08-16T05:51:45.852Z,7.60
2022-08-16T05:54:25.050Z,7.40
2022-08-16T05:56:57.953Z,6.00
2022-08-16T05:59:29.031Z,5.20
2022-08-16T06:01:58.488Z,4.60
2022-08-16T06:04:36.543Z,5.20
2022-08-16T06:07:24.369Z,10.90
2022-08-16T06:10:00.505Z,5.00
2022-08-16T06:12:30.934Z,7.70
2022-08-16T06:17:46.862Z,6.70
2022-08-16T06:20:34.914Z,5.30
2022-08-16T06:23:17.452Z,6.20
2022-08-16T06:26:09.855Z,9.70
2022-08-16T06:28:44.578Z,8.20
2022-08-16T06:31:19.175Z,11.50
2022-08-16T06:33:53.687Z,13.60
2022-08-16T06:36:24.267Z,10.60
2022-08-16T06:42:39.561Z,12.20
2022-08-16T06:45:43.343Z,9.40
2022-08-16T06:48:32.974Z,13.90
2022-08-16T06:51:07.484Z,6.10
2022-08-16T06:53:36.921Z,7.60
2022-08-16T06:56:14.537Z,7.60
2022-08-16T06:59:02.445Z,5.70
2022-08-16T07:01:44.810Z,5.70
2022-08-16T07:04:31.569Z,7.00
2022-08-16T07:07:09.567Z,9.80
2022-08-16T07:09:38.937Z,7.50
2022-08-16T07:12:08.436Z,7.60
2022-08-16T07:14:41.156Z,7.10
2022-08-16T07:17:12.756Z,8.30
2022-08-16T07:20:04.036Z,7.30
2022-08-16T07:22:52.503Z,9.60
2022-08-16T07:25:28.229Z,8.50
2022-08-16T07:27:56.712Z,8.70
2022-08-16T07:30:39.945Z,8.20
2022-08-16T07:33:52.107Z,8.40
2022-08-16T07:36:27.149Z,10.10
2022-08-16T07:38:57.884Z,8.20
2022-08-16T07:41:27.318Z,9.50
2022-08-16T07:44:00.509Z,6.50
2022-08-16T07:46:38.501Z,7.80
2022-08-16T07:49:21.402Z,5.70
2022-08-16T07:51:54.315Z,5.40
2022-08-16T07:54:32.023Z,8.40
2022-08-16T07:57:02.521Z,6.80
2022-08-16T07:59:42.823Z,7.80
2022-08-16T08:02:20.011Z,8.00
2022-08-16T08:04:56.386Z,9.30
2022-08-16T08:07:28.186Z,10.00
2022-08-16T08:09:58.452Z,10.30
2022-08-16T08:12:31.964Z,7.80
2022-08-16T08:15:11.493Z,11.00
2022-08-16T08:17:43.952Z,8.40
2022-08-16T08:20:28.034Z,11.10
2022-08-16T08:23:01.016Z,9.20
2022-08-16T08:25:55.271Z,9.80
2022-08-16T08:28:23.843Z,8.80
2022-08-16T08:31:02.732Z,8.90
2022-08-16T08:33:36.028Z,11.40
2022-08-16T08:36:08.065Z,9.40
2022-08-16T08:38:45.071Z,9.00
2022-08-16T08:41:18.891Z,8.90
2022-08-16T08:43:52.249Z,14.40
2022-08-16T08:46:25.177Z,11.20
2022-08-16T08:49:00.002Z,9.80
2022-08-16T08:51:38.533Z,11.00
2022-08-16T08:54:20.575Z,9.90
2022-08-16T08:56:54.683Z,10.10
2022-08-16T08:59:34.865Z,12.30
2022-08-16T09:02:11.777Z,7.90
2022-08-16T09:04:48.720Z,12.80
2022-08-16T09:07:23.667Z,13.10
2022-08-16T09:10:06.894Z,11.40
2022-08-16T09:12:46.581Z,13.50
2022-08-16T09:15:23.880Z,9.30
2022-08-16T09:17:55.804Z,12.90
2022-08-16T09:20:29.569Z,6.70
2022-08-16T09:23:02.823Z,8.20
2022-08-16T09:25:35.805Z,7.40
2022-08-16T09:28:12.702Z,6.10
2022-08-16T09:31:07.253Z,6.00
2022-08-16T09:33:40.672Z,5.70
2022-08-16T09:36:12.132Z,11.00
2022-08-16T09:39:02.428Z,7.40
2022-08-16T09:41:33.790Z,8.10
2022-08-16T09:45:12.406Z,5.20
2022-08-16T09:46:57.687Z,4.90
2022-08-16T09:52:06.115Z,4.60
2022-08-16T09:54:34.413Z,6.70
2022-08-16T09:57:03.632Z,4.70
2022-08-16T09:59:38.544Z,6.90
2022-08-16T10:02:27.257Z,5.10
2022-08-16T10:04:58.259Z,5.00
2022-08-16T10:07:44.054Z,6.30
2022-08-16T10:10:18.900Z,5.40
2022-08-16T10:13:16.255Z,5.70
2022-08-16T10:15:57.911Z,6.30
2022-08-16T10:18:56.165Z,6.40
2022-08-16T10:21:18.660Z,5.10
2022-08-16T10:23:54.924Z,4.90
2022-08-16T10:27:20.709Z,8.20
2022-08-16T10:29:19.976Z,4.80
2022-08-16T10:31:53.771Z,5.50
2022-08-16T10:37:02.812Z,7.00
2022-08-16T10:39:41.436Z,4.70
2022-08-16T10:42:13.638Z,7.40
2022-08-16T10:44:43.051Z,7.60
2022-08-16T10:47:22.534Z,5.90
2022-08-16T10:49:50.880Z,7.70
2022-08-16T10:52:20.213Z,6.60
2022-08-16T10:57:37.868Z,6.10
2022-08-16T11:00:21.050Z,7.40
2022-08-16T11:02:57.794Z,6.70
2022-08-16T11:08:36.061Z,5.80
2022-08-16T11:11:12.940Z,5.90
2022-08-16T11:14:05.992Z,6.20
2022-08-16T11:19:26.331Z,6.70
2022-08-16T11:22:39.324Z,6.60
2022-08-16T11:24:46.705Z,5.60
2022-08-16T11:27:36.272Z,5.40
2022-08-16T11:30:08.982Z,6.70
2022-08-16T11:32:38.545Z,5.80
2022-08-16T11:35:15.790Z,5.10
2022-08-16T11:38:06.026Z,6.70
2022-08-16T11:40:58.300Z,5.80
2022-08-16T11:43:34.766Z,5.40
2022-08-16T11:46:44.426Z,5.40
2022-08-16T11:48:58.427Z,6.30
2022-08-16T11:51:27.147Z,6.40
2022-08-16T11:53:56.208Z,10.00
2022-08-16T11:56:51.740Z,6.50
2022-08-16T11:59:13.448Z,5.30
2022-08-16T12:01:59.143Z,5.40
2022-08-16T12:04:28.677Z,5.80
2022-08-16T12:06:58.998Z,8.10
2022-08-16T12:09:30.339Z,5.20
2022-08-16T12:12:02.662Z,5.80
2022-08-16T12:14:35.203Z,5.40
2022-08-16T12:17:06.642Z,6.60
2022-08-16T12:19:37.214Z,4.50
2022-08-16T12:22:18.998Z,4.80
2022-08-16T12:24:52.012Z,5.50
2022-08-16T12:27:24.265Z,5.50
2022-08-16T12:29:54.414Z,4.90
2022-08-16T12:32:35.960Z,5.10
2022-08-16T12:35:12.269Z,6.40
2022-08-16T12:40:19.782Z,7.50
2022-08-16T12:42:59.061Z,8.40
2022-08-16T12:45:35.574Z,4.90
2022-08-16T12:48:34.425Z,4.10
2022-08-16T12:51:20.029Z,5.10
2022-08-16T12:53:55.815Z,4.20
2022-08-16T12:56:29.689Z,3.90
2022-08-16T12:58:58.118Z,5.00
2022-08-16T13:01:33.445Z,5.50
2022-08-16T13:04:20.616Z,4.40
2022-08-16T13:06:52.372Z,3.40
2022-08-16T13:09:28.944Z,6.10
2022-08-16T13:12:06.618Z,6.90
2022-08-16T13:14:39.931Z,6.30
2022-08-16T13:17:19.206Z,6.10
2022-08-16T13:20:09.601Z,14.20
2022-08-16T13:22:48.585Z,3.80
2022-08-16T13:25:22.562Z,5.90
2022-08-16T13:28:02.280Z,2.90
2022-08-16T13:30:41.357Z,3.00
2022-08-16T13:33:16.962Z,4.30
2022-08-16T13:35:56.190Z,3.60
2022-08-16T13:38:37.088Z,4.60
2022-08-16T13:41:10.792Z,3.80
2022-08-16T13:43:42.175Z,4.40
2022-08-16T13:46:11.237Z,3.00
2022-08-16T13:48:44.687Z,4.00
2022-08-16T13:51:19.468Z,3.40
2022-08-16T13:53:59.703Z,3.70
2022-08-16T13:56:39.544Z,3.90
2022-08-16T13:59:20.630Z,4.00
2022-08-16T14:01:55.184Z,4.70
2022-08-16T14:04:31.660Z,2.60
2022-08-16T14:07:02.965Z,4.90
2022-08-16T14:09:33.186Z,3.30
2022-08-16T14:12:04.453Z,4.60
2022-08-16T14:14:47.506Z,3.90
2022-08-16T14:17:16.561Z,3.10
2022-08-16T14:19:46.437Z,3.10
2022-08-16T14:22:31.291Z,3.70
2022-08-16T14:25:01.385Z,2.90
2022-08-16T14:27:32.278Z,3.00
2022-08-16T14:30:01.483Z,3.60
2022-08-16T14:32:32.991Z,2.80
2022-08-16T14:35:15.790Z,3.40
2022-08-16T14:37:44.703Z,2.60
2022-08-16T14:40:17.264Z,3.20
2022-08-16T14:42:47.866Z,3.20
2022-08-16T14:45:21.510Z,3.70
2022-08-16T14:47:50.294Z,4.20
2022-08-16T14:50:23.506Z,4.10
2022-08-16T14:53:00.929Z,5.30
2022-08-16T14:55:32.293Z,3.20
2022-08-16T14:58:00.559Z,3.50
2022-08-16T15:00:34.637Z,4.40
2022-08-16T15:03:09.829Z,2.90
2022-08-16T15:05:42.024Z,3.30
2022-08-16T15:08:11.343Z,3.80
2022-08-16T15:10:44.762Z,4.80
2022-08-16T15:13:15.411Z,2.90
2022-08-16T15:15:45.080Z,3.30
2022-08-16T15:18:28.006Z,3.90
2022-08-16T15:21:05.159Z,3.00
2022-08-16T15:23:40.549Z,3.50
2022-08-16T15:26:10.943Z,3.80
2022-08-16T15:28:48.112Z,2.70
2022-08-16T15:31:16.909Z,3.60
2022-08-16T15:33:56.650Z,3.30
2022-08-16T15:36:26.826Z,3.30
2022-08-16T15:39:07.755Z,3.10
2022-08-16T15:41:47.925Z,3.90
2022-08-16T15:44:24.877Z,4.00
2022-08-16T15:47:02.981Z,3.50
2022-08-16T15:49:45.990Z,5.20
2022-08-16T15:52:29.822Z,3.40
2022-08-16T15:55:23.528Z,3.90
2022-08-16T15:57:56.086Z,4.20
2022-08-16T16:00:26.845Z,4.90
2022-08-16T16:03:08.399Z,4.10
2022-08-16T16:05:40.925Z,4.30
2022-08-16T16:08:10.999Z,5.00
2022-08-16T16:10:43.601Z,4.90
2022-08-16T16:13:24.163Z,4.70
2022-08-16T16:15:58.281Z,5.10
2022-08-16T16:21:03.678Z,4.00
2022-08-16T16:23:53.847Z,4.30
2022-08-16T16:26:24.946Z,4.80
2022-08-16T16:29:07.866Z,3.50
2022-08-16T16:31:59.026Z,5.60
2022-08-16T16:34:32.395Z,4.70
2022-08-16T16:37:05.081Z,4.10
2022-08-16T16:39:38.022Z,4.00
2022-08-16T16:42:06.821Z,4.60
2022-08-16T16:44:57.541Z,3.90
2022-08-16T16:47:37.993Z,4.00
2022-08-16T16:50:12.551Z,5.40
2022-08-16T16:52:43.926Z,6.30
2022-08-16T16:55:14.800Z,4.70
2022-08-16T16:58:03.269Z,5.40
2022-08-16T17:00:37.608Z,6.60
2022-08-16T17:03:17.214Z,5.30
2022-08-16T17:05:54.173Z,4.40
2022-08-16T17:08:27.355Z,5.10
2022-08-16T17:10:57.905Z,5.40
2022-08-16T17:13:27.454Z,5.40
2022-08-16T17:15:56.045Z,5.00
2022-08-16T17:19:15.174Z,6.50
2022-08-16T17:24:03.138Z,6.90
2022-08-16T17:26:48.786Z,8.10
2022-08-16T17:29:17.686Z,6.40
2022-08-16T17:31:49.714Z,5.10
2022-08-16T17:34:29.450Z,5.60
2022-08-16T17:37:05.441Z,5.60
2022-08-16T17:39:28.150Z,5.10
2022-08-16T17:39:59.933Z,6.30
2022-08-16T17:42:25.960Z,7.80
2022-08-16T17:44:55.013Z,9.30
2022-08-16T17:47:24.072Z,6.90
2022-08-16T17:49:52.636Z,7.20
2022-08-16T17:52:20.974Z,9.20
2022-08-16T17:54:49.289Z,5.40
2022-08-16T17:57:17.593Z,10.30
2022-08-16T17:59:45.889Z,6.90
2022-08-16T18:02:42.837Z,8.20
2022-08-16T18:05:02.748Z,7.00
2022-08-16T18:07:31.612Z,9.20
2022-08-16T18:09:59.884Z,10.00
2022-08-16T18:12:44.326Z,8.20
2022-08-16T18:15:17.137Z,6.90
2022-08-16T18:17:45.514Z,8.20
2022-08-16T18:20:32.595Z,8.80
2022-08-16T18:23:25.098Z,6.00
2022-08-16T18:25:59.587Z,6.30
2022-08-16T18:28:30.481Z,9.50
2022-08-16T18:31:01.248Z,5.60
2022-08-16T18:33:43.294Z,10.40
2022-08-16T18:36:20.449Z,6.50
2022-08-16T18:38:51.198Z,5.40
2022-08-16T18:41:22.650Z,5.90
2022-08-16T18:44:23.967Z,8.00
2022-08-16T18:46:43.396Z,7.60
2022-08-16T18:49:17.982Z,6.90
2022-08-16T18:51:47.394Z,7.20
2022-08-16T18:54:18.500Z,8.20
2022-08-16T18:56:55.623Z,7.70
2022-08-16T18:59:28.502Z,7.30
2022-08-16T19:02:00.028Z,8.00
2022-08-16T19:04:55.531Z,8.60
2022-08-16T19:07:31.179Z,11.30
2022-08-16T19:12:37.987Z,8.40
2022-08-16T19:15:28.706Z,7.90
2022-08-16T19:17:57.394Z,8.80
2022-08-16T19:20:28.601Z,11.80
2022-08-16T19:23:05.012Z,7.50
2022-08-16T19:25:46.699Z,8.60
2022-08-16T19:28:58.070Z,8.40
2022-08-16T19:31:27.409Z,7.90
2022-08-16T19:33:56.942Z,8.80
2022-08-16T19:36:35.122Z,6.60
2022-08-16T19:39:15.850Z,8.00
2022-08-16T19:41:50.410Z,7.40
2022-08-16T19:44:23.650Z,7.60
2022-08-16T19:46:51.978Z,7.20
2022-08-16T19:49:20.252Z,7.20
2022-08-16T19:51:48.962Z,10.30
2022-08-16T19:54:17.953Z,10.10
2022-08-16T19:56:46.571Z,8.20
2022-08-16T19:59:39.671Z,6.10
2022-08-16T20:02:04.929Z,7.00
2022-08-16T20:04:33.390Z,9.40
2022-08-16T20:07:02.201Z,7.90
2022-08-16T20:09:30.616Z,7.30
2022-08-16T20:11:59.362Z,7.00
2022-08-16T20:14:27.710Z,8.20
2022-08-16T20:16:58.896Z,10.00
2022-08-16T20:19:33.440Z,8.10
2022-08-16T20:22:42.092Z,8.40
2022-08-16T20:25:13.930Z,9.30
2022-08-16T20:27:42.992Z,13.30
2022-08-16T20:30:15.949Z,8.10
2022-08-16T20:32:46.496Z,7.60
2022-08-16T20:35:18.020Z,9.50
2022-08-16T20:37:47.674Z,11.60
2022-08-16T20:40:33.759Z,9.90
2022-08-16T20:43:15.646Z,9.50
2022-08-16T20:45:46.442Z,12.10
2022-08-16T20:48:15.234Z,15.70
2022-08-16T20:50:43.956Z,12.40
2022-08-16T20:53:12.460Z,8.10
2022-08-16T20:55:41.864Z,10.90
2022-08-16T20:58:10.617Z,9.70
2022-08-16T21:00:39.381Z,13.50
2022-08-16T21:03:10.882Z,10.50
2022-08-16T21:05:39.227Z,10.30
2022-08-16T21:08:50.143Z,7.90
2022-08-16T21:10:57.331Z,8.40
2022-08-16T21:13:25.835Z,7.10
2022-08-16T21:15:54.209Z,13.90
2022-08-16T21:18:22.583Z,7.30
2022-08-16T21:20:51.108Z,7.20
2022-08-16T21:23:19.857Z,9.10
2022-08-16T21:25:58.549Z,7.70
2022-08-16T21:28:38.845Z,7.60
2022-08-16T21:31:12.883Z,13.10
2022-08-16T21:33:43.360Z,7.90
2022-08-16T21:36:12.809Z,7.90
2022-08-16T21:38:41.171Z,7.80
2022-08-16T21:41:12.914Z,11.60
2022-08-16T21:43:41.994Z,11.80
2022-08-16T21:46:10.589Z,9.70
2022-08-16T21:48:40.669Z,6.80
2022-08-16T21:51:14.743Z,8.10
2022-08-16T21:56:17.253Z,8.10
2022-08-16T21:58:52.953Z,10.30
2022-08-16T22:01:23.599Z,8.10
2022-08-16T22:04:01.488Z,8.00
2022-08-16T22:06:43.114Z,6.00
2022-08-16T22:09:17.643Z,8.10
2022-08-16T22:11:46.145Z,10.60
2022-08-16T22:14:14.447Z,9.40
2022-08-16T22:16:43.603Z,7.20
2022-08-16T22:19:13.383Z,8.40
2022-08-16T22:21:41.777Z,7.30
2022-08-16T22:24:10.141Z,8.70
2022-08-16T22:26:43.077Z,6.20
2022-08-16T22:29:15.163Z,6.50
2022-08-16T22:31:44.988Z,7.40
2022-08-16T22:34:14.739Z,9.50
2022-08-16T22:36:44.237Z,6.20
2022-08-16T22:39:14.817Z,6.30
2022-08-16T22:41:45.903Z,7.60
2022-08-16T22:44:14.668Z,8.80
2022-08-16T22:46:43.090Z,6.30
2022-08-16T22:49:12.370Z,5.30
2022-08-16T22:51:41.642Z,5.60
2022-08-16T22:54:40.984Z,7.80
2022-08-16T22:56:59.009Z,6.20
2022-08-16T22:59:29.759Z,7.80
2022-08-16T23:02:00.844Z,7.70
2022-08-16T23:04:30.968Z,7.30
2022-08-16T23:06:59.763Z,7.20
2022-08-16T23:09:28.418Z,8.00
2022-08-16T23:11:56.792Z,9.10
2022-08-16T23:14:25.088Z,7.20
2022-08-16T23:16:53.367Z,7.20
2022-08-16T23:19:21.871Z,6.00
2022-08-16T23:21:50.358Z,6.90
2022-08-16T23:24:22.329Z,5.90
2022-08-16T23:26:50.700Z,6.50
2022-08-16T23:29:25.307Z,6.80
2022-08-16T23:31:58.811Z,6.00
2022-08-16T23:34:29.887Z,6.90
2022-08-16T23:36:58.201Z,7.90
2022-08-16T23:39:26.625Z,5.60
2022-08-16T23:41:55.725Z,8.50
2022-08-16T23:44:58.738Z,7.10
2022-08-16T23:47:13.309Z,10.00
2022-08-16T23:49:57.665Z,11.70
2022-08-16T23:52:45.241Z,9.00
2022-08-16T23:55:17.132Z,12.40
2022-08-16T23:57:47.448Z,10.60
